sensor_id;sensor_type;location;lat;lon;timestamp;P1;durP1;ratioP1;P2;durP2;ratioP2
73859;SDS011;62197;51.632;13.700;2022-07-29T00:00:08;1.85;;;0.88;;
73859;SDS011;62197;51.632;13.700;2022-07-29T00:02:34;2.83;;;1.13;;
73859;SDS011;62197;51.632;13.700;2022-07-29T00:04:59;3.60;;;1.15;;
73859;SDS011;62197;51.632;13.700;2022-07-29T00:07:25;2.08;;;0.98;;
73859;SDS011;62197;51.632;13.700;2022-07-29T00:09:50;4.05;;;1.08;;
73859;SDS011;62197;51.632;13.700;2022-07-29T00:12:16;4.30;;;1.15;;
73859;SDS011;62197;51.632;13.700;2022-07-29T00:14:41;4.05;;;0.98;;
73859;SDS011;62197;51.632;13.700;2022-07-29T00:17:07;2.80;;;1.10;;
73859;SDS011;62197;51.632;13.700;2022-07-29T00:19:32;2.92;;;1.27;;
73859;SDS011;62197;51.632;13.700;2022-07-29T00:21:59;4.38;;;1.23;;
73859;SDS011;62197;51.632;13.700;2022-07-29T00:24:25;3.67;;;1.30;;
73859;SDS011;62197;51.632;13.700;2022-07-29T00:26:50;3.60;;;1.08;;
73859;SDS011;62197;51.632;13.700;2022-07-29T00:29:15;5.60;;;1.00;;
73859;SDS011;62197;51.632;13.700;2022-07-29T00:31:41;6.50;;;1.27;;
73859;SDS011;62197;51.632;13.700;2022-07-29T00:34:06;8.88;;;1.55;;
73859;SDS011;62197;51.632;13.700;2022-07-29T00:36:51;2.50;;;1.02;;
73859;SDS011;62197;51.632;13.700;2022-07-29T00:39:17;4.93;;;1.65;;
73859;SDS011;62197;51.632;13.700;2022-07-29T00:41:42;3.65;;;1.10;;
73859;SDS011;62197;51.632;13.700;2022-07-29T00:44:07;3.30;;;1.02;;
73859;SDS011;62197;51.632;13.700;2022-07-29T00:46:33;3.97;;;1.30;;
73859;SDS011;62197;51.632;13.700;2022-07-29T00:48:58;2.83;;;1.13;;
73859;SDS011;62197;51.632;13.700;2022-07-29T00:51:25;4.13;;;1.00;;
73859;SDS011;62197;51.632;13.700;2022-07-29T00:53:51;5.35;;;1.23;;
73859;SDS011;62197;51.632;13.700;2022-07-29T00:56:17;5.53;;;1.02;;
73859;SDS011;62197;51.632;13.700;2022-07-29T00:58:43;4.22;;;1.00;;
73859;SDS011;62197;51.632;13.700;2022-07-29T01:01:11;3.30;;;1.38;;
73859;SDS011;62197;51.632;13.700;2022-07-29T01:03:36;5.05;;;1.33;;
73859;SDS011;62197;51.632;13.700;2022-07-29T01:06:02;2.38;;;1.20;;
73859;SDS011;62197;51.632;13.700;2022-07-29T01:08:27;3.60;;;1.40;;
73859;SDS011;62197;51.632;13.700;2022-07-29T01:10:53;1.88;;;0.73;;
73859;SDS011;62197;51.632;13.700;2022-07-29T01:13:19;3.88;;;1.20;;
73859;SDS011;62197;51.632;13.700;2022-07-29T01:15:47;1.92;;;0.82;;
73859;SDS011;62197;51.632;13.700;2022-07-29T01:18:18;4.53;;;1.63;;
73859;SDS011;62197;51.632;13.700;2022-07-29T01:23:34;4.55;;;1.13;;
73859;SDS011;62197;51.632;13.700;2022-07-29T01:29:22;2.20;;;1.10;;
73859;SDS011;62197;51.632;13.700;2022-07-29T01:31:59;4.30;;;1.27;;
73859;SDS011;62197;51.632;13.700;2022-07-29T01:34:31;2.80;;;1.40;;
73859;SDS011;62197;51.632;13.700;2022-07-29T01:37:07;6.65;;;1.17;;
73859;SDS011;62197;51.632;13.700;2022-07-29T01:42:26;5.30;;;1.30;;
73859;SDS011;62197;51.632;13.700;2022-07-29T01:45:00;4.85;;;1.40;;
73859;SDS011;62197;51.632;13.700;2022-07-29T01:47:32;3.78;;;1.38;;
73859;SDS011;62197;51.632;13.700;2022-07-29T01:50:05;4.20;;;1.27;;
73859;SDS011;62197;51.632;13.700;2022-07-29T01:52:38;4.60;;;1.40;;
73859;SDS011;62197;51.632;13.700;2022-07-29T01:55:10;7.20;;;1.70;;
73859;SDS011;62197;51.632;13.700;2022-07-29T01:57:38;2.97;;;1.10;;
73859;SDS011;62197;51.632;13.700;2022-07-29T02:00:07;3.50;;;1.00;;
73859;SDS011;62197;51.632;13.700;2022-07-29T02:02:33;3.38;;;1.20;;
73859;SDS011;62197;51.632;13.700;2022-07-29T02:05:02;2.05;;;1.20;;
73859;SDS011;62197;51.632;13.700;2022-07-29T02:07:30;1.88;;;1.17;;
73859;SDS011;62197;51.632;13.700;2022-07-29T02:09:58;5.07;;;1.48;;
73859;SDS011;62197;51.632;13.700;2022-07-29T02:12:25;5.93;;;1.33;;
73859;SDS011;62197;51.632;13.700;2022-07-29T02:14:53;6.18;;;1.67;;
73859;SDS011;62197;51.632;13.700;2022-07-29T02:17:23;3.55;;;1.33;;
73859;SDS011;62197;51.632;13.700;2022-07-29T02:19:53;2.92;;;1.08;;
73859;SDS011;62197;51.632;13.700;2022-07-29T02:22:24;2.13;;;1.13;;
73859;SDS011;62197;51.632;13.700;2022-07-29T02:24:51;5.53;;;1.30;;
73859;SDS011;62197;51.632;13.700;2022-07-29T02:27:18;7.03;;;1.25;;
73859;SDS011;62197;51.632;13.700;2022-07-29T02:29:45;3.60;;;1.10;;
73859;SDS011;62197;51.632;13.700;2022-07-29T02:32:13;3.50;;;1.40;;
73859;SDS011;62197;51.632;13.700;2022-07-29T02:34:41;4.53;;;1.20;;
73859;SDS011;62197;51.632;13.700;2022-07-29T02:37:09;4.93;;;1.27;;
73859;SDS011;62197;51.632;13.700;2022-07-29T02:39:36;2.97;;;1.65;;
73859;SDS011;62197;51.632;13.700;2022-07-29T02:42:04;4.82;;;1.27;;
73859;SDS011;62197;51.632;13.700;2022-07-29T02:44:32;4.10;;;1.30;;
73859;SDS011;62197;51.632;13.700;2022-07-29T02:50:09;2.45;;;1.13;;
73859;SDS011;62197;51.632;13.700;2022-07-29T02:52:39;3.38;;;1.45;;
73859;SDS011;62197;51.632;13.700;2022-07-29T02:55:15;6.30;;;1.60;;
73859;SDS011;62197;51.632;13.700;2022-07-29T02:57:47;1.75;;;1.10;;
73859;SDS011;62197;51.632;13.700;2022-07-29T03:00:16;6.47;;;1.63;;
73859;SDS011;62197;51.632;13.700;2022-07-29T03:02:44;4.50;;;1.45;;
73859;SDS011;62197;51.632;13.700;2022-07-29T03:05:15;4.97;;;1.40;;
73859;SDS011;62197;51.632;13.700;2022-07-29T03:07:45;3.83;;;1.52;;
73859;SDS011;62197;51.632;13.700;2022-07-29T03:10:14;4.30;;;1.40;;
73859;SDS011;62197;51.632;13.700;2022-07-29T03:12:40;2.30;;;1.20;;
73859;SDS011;62197;51.632;13.700;2022-07-29T03:15:06;2.30;;;1.17;;
73859;SDS011;62197;51.632;13.700;2022-07-29T03:17:33;4.63;;;1.75;;
73859;SDS011;62197;51.632;13.700;2022-07-29T03:19:59;4.15;;;1.92;;
73859;SDS011;62197;51.632;13.700;2022-07-29T03:22:25;4.50;;;1.23;;
73859;SDS011;62197;51.632;13.700;2022-07-29T03:24:51;8.20;;;1.40;;
73859;SDS011;62197;51.632;13.700;2022-07-29T03:27:16;4.05;;;1.30;;
73859;SDS011;62197;51.632;13.700;2022-07-29T03:29:42;4.15;;;1.45;;
73859;SDS011;62197;51.632;13.700;2022-07-29T03:32:07;4.35;;;1.40;;
73859;SDS011;62197;51.632;13.700;2022-07-29T03:34:32;6.15;;;1.33;;
73859;SDS011;62197;51.632;13.700;2022-07-29T03:36:58;4.90;;;1.50;;
73859;SDS011;62197;51.632;13.700;2022-07-29T03:39:26;4.38;;;1.25;;
73859;SDS011;62197;51.632;13.700;2022-07-29T03:41:55;4.93;;;1.40;;
73859;SDS011;62197;51.632;13.700;2022-07-29T03:44:22;2.92;;;1.25;;
73859;SDS011;62197;51.632;13.700;2022-07-29T03:46:51;3.03;;;1.40;;
73859;SDS011;62197;51.632;13.700;2022-07-29T03:49:19;3.63;;;1.42;;
73859;SDS011;62197;51.632;13.700;2022-07-29T03:51:45;6.72;;;1.55;;
73859;SDS011;62197;51.632;13.700;2022-07-29T03:54:10;3.55;;;1.73;;
73859;SDS011;62197;51.632;13.700;2022-07-29T03:56:40;3.05;;;1.25;;
73859;SDS011;62197;51.632;13.700;2022-07-29T03:59:11;4.07;;;1.40;;
73859;SDS011;62197;51.632;13.700;2022-07-29T04:01:37;5.70;;;1.30;;
73859;SDS011;62197;51.632;13.700;2022-07-29T04:04:04;3.33;;;1.27;;
73859;SDS011;62197;51.632;13.700;2022-07-29T04:06:37;3.85;;;1.70;;
73859;SDS011;62197;51.632;13.700;2022-07-29T04:09:06;8.23;;;1.80;;
73859;SDS011;62197;51.632;13.700;2022-07-29T04:11:32;6.50;;;1.35;;
73859;SDS011;62197;51.632;13.700;2022-07-29T04:13:59;3.55;;;1.38;;
73859;SDS011;62197;51.632;13.700;2022-07-29T04:16:24;4.68;;;1.52;;
73859;SDS011;62197;51.632;13.700;2022-07-29T04:18:49;2.63;;;1.38;;
73859;SDS011;62197;51.632;13.700;2022-07-29T04:21:15;9.07;;;1.85;;
73859;SDS011;62197;51.632;13.700;2022-07-29T04:23:40;5.43;;;1.63;;
73859;SDS011;62197;51.632;13.700;2022-07-29T04:26:06;4.85;;;1.40;;
73859;SDS011;62197;51.632;13.700;2022-07-29T04:28:34;8.57;;;1.60;;
73859;SDS011;62197;51.632;13.700;2022-07-29T04:30:59;4.57;;;1.38;;
73859;SDS011;62197;51.632;13.700;2022-07-29T04:33:25;6.68;;;1.65;;
73859;SDS011;62197;51.632;13.700;2022-07-29T04:35:51;4.47;;;1.45;;
73859;SDS011;62197;51.632;13.700;2022-07-29T04:38:16;4.25;;;1.40;;
73859;SDS011;62197;51.632;13.700;2022-07-29T04:40:41;3.97;;;1.58;;
73859;SDS011;62197;51.632;13.700;2022-07-29T04:43:07;5.22;;;1.58;;
73859;SDS011;62197;51.632;13.700;2022-07-29T04:45:32;6.95;;;1.70;;
73859;SDS011;62197;51.632;13.700;2022-07-29T04:47:57;7.97;;;1.48;;
73859;SDS011;62197;51.632;13.700;2022-07-29T04:50:23;5.43;;;1.60;;
73859;SDS011;62197;51.632;13.700;2022-07-29T04:52:48;5.00;;;1.10;;
73859;SDS011;62197;51.632;13.700;2022-07-29T04:55:14;3.00;;;1.23;;
73859;SDS011;62197;51.632;13.700;2022-07-29T04:57:39;8.65;;;1.80;;
73859;SDS011;62197;51.632;13.700;2022-07-29T05:00:05;4.85;;;1.38;;
73859;SDS011;62197;51.632;13.700;2022-07-29T05:02:32;3.00;;;1.50;;
73859;SDS011;62197;51.632;13.700;2022-07-29T05:04:57;5.15;;;1.70;;
73859;SDS011;62197;51.632;13.700;2022-07-29T05:07:23;7.05;;;1.98;;
73859;SDS011;62197;51.632;13.700;2022-07-29T05:09:48;4.93;;;1.48;;
73859;SDS011;62197;51.632;13.700;2022-07-29T05:12:13;4.65;;;1.83;;
73859;SDS011;62197;51.632;13.700;2022-07-29T05:14:39;7.47;;;1.92;;
73859;SDS011;62197;51.632;13.700;2022-07-29T05:17:04;4.97;;;1.30;;
73859;SDS011;62197;51.632;13.700;2022-07-29T05:19:30;5.35;;;1.50;;
73859;SDS011;62197;51.632;13.700;2022-07-29T05:21:55;5.55;;;1.80;;
73859;SDS011;62197;51.632;13.700;2022-07-29T05:24:21;6.55;;;2.00;;
73859;SDS011;62197;51.632;13.700;2022-07-29T05:26:46;2.40;;;1.45;;
73859;SDS011;62197;51.632;13.700;2022-07-29T05:29:11;3.53;;;1.67;;
73859;SDS011;62197;51.632;13.700;2022-07-29T05:31:37;6.70;;;1.65;;
73859;SDS011;62197;51.632;13.700;2022-07-29T05:34:02;4.90;;;1.45;;
73859;SDS011;62197;51.632;13.700;2022-07-29T05:36:27;11.38;;;2.13;;
73859;SDS011;62197;51.632;13.700;2022-07-29T05:38:53;6.97;;;1.70;;
73859;SDS011;62197;51.632;13.700;2022-07-29T05:41:18;4.82;;;1.60;;
73859;SDS011;62197;51.632;13.700;2022-07-29T05:43:44;4.78;;;1.75;;
73859;SDS011;62197;51.632;13.700;2022-07-29T05:46:09;5.00;;;1.67;;
73859;SDS011;62197;51.632;13.700;2022-07-29T05:48:35;3.30;;;1.42;;
73859;SDS011;62197;51.632;13.700;2022-07-29T05:51:00;4.53;;;1.60;;
73859;SDS011;62197;51.632;13.700;2022-07-29T05:53:26;4.15;;;1.55;;
73859;SDS011;62197;51.632;13.700;2022-07-29T05:55:51;3.38;;;1.58;;
73859;SDS011;62197;51.632;13.700;2022-07-29T05:58:17;3.92;;;1.27;;
73859;SDS011;62197;51.632;13.700;2022-07-29T06:00:43;3.90;;;1.40;;
73859;SDS011;62197;51.632;13.700;2022-07-29T06:03:09;7.45;;;1.70;;
73859;SDS011;62197;51.632;13.700;2022-07-29T06:05:34;5.65;;;1.80;;
73859;SDS011;62197;51.632;13.700;2022-07-29T06:07:59;4.97;;;1.88;;
73859;SDS011;62197;51.632;13.700;2022-07-29T06:10:25;4.07;;;1.25;;
73859;SDS011;62197;51.632;13.700;2022-07-29T06:12:51;3.65;;;1.58;;
73859;SDS011;62197;51.632;13.700;2022-07-29T06:15:17;5.00;;;1.60;;
73859;SDS011;62197;51.632;13.700;2022-07-29T06:17:42;4.10;;;1.58;;
73859;SDS011;62197;51.632;13.700;2022-07-29T06:20:08;5.97;;;1.38;;
73859;SDS011;62197;51.632;13.700;2022-07-29T06:22:34;5.05;;;1.92;;
73859;SDS011;62197;51.632;13.700;2022-07-29T06:25:00;5.03;;;1.67;;
73859;SDS011;62197;51.632;13.700;2022-07-29T06:27:26;3.70;;;1.40;;
73859;SDS011;62197;51.632;13.700;2022-07-29T06:29:51;4.63;;;1.42;;
73859;SDS011;62197;51.632;13.700;2022-07-29T06:32:16;7.15;;;1.90;;
73859;SDS011;62197;51.632;13.700;2022-07-29T06:34:42;4.18;;;1.58;;
73859;SDS011;62197;51.632;13.700;2022-07-29T06:37:07;7.10;;;1.95;;
73859;SDS011;62197;51.632;13.700;2022-07-29T06:39:34;5.25;;;1.55;;
73859;SDS011;62197;51.632;13.700;2022-07-29T06:42:01;4.25;;;1.23;;
73859;SDS011;62197;51.632;13.700;2022-07-29T06:44:26;3.17;;;1.35;;
73859;SDS011;62197;51.632;13.700;2022-07-29T06:46:52;5.65;;;1.90;;
73859;SDS011;62197;51.632;13.700;2022-07-29T06:49:17;3.85;;;1.45;;
73859;SDS011;62197;51.632;13.700;2022-07-29T06:51:43;4.45;;;1.75;;
73859;SDS011;62197;51.632;13.700;2022-07-29T06:54:08;5.88;;;1.60;;
73859;SDS011;62197;51.632;13.700;2022-07-29T06:56:34;6.85;;;1.42;;
73859;SDS011;62197;51.632;13.700;2022-07-29T06:59:03;6.55;;;1.73;;
73859;SDS011;62197;51.632;13.700;2022-07-29T07:01:29;5.13;;;1.77;;
73859;SDS011;62197;51.632;13.700;2022-07-29T07:03:54;2.83;;;1.52;;
73859;SDS011;62197;51.632;13.700;2022-07-29T07:06:21;6.95;;;1.80;;
73859;SDS011;62197;51.632;13.700;2022-07-29T07:08:46;6.30;;;2.17;;
73859;SDS011;62197;51.632;13.700;2022-07-29T07:11:11;3.67;;;1.65;;
73859;SDS011;62197;51.632;13.700;2022-07-29T07:13:37;5.63;;;1.50;;
73859;SDS011;62197;51.632;13.700;2022-07-29T07:16:02;2.05;;;1.25;;
73859;SDS011;62197;51.632;13.700;2022-07-29T07:18:28;5.18;;;2.00;;
73859;SDS011;62197;51.632;13.700;2022-07-29T07:20:54;6.53;;;1.52;;
73859;SDS011;62197;51.632;13.700;2022-07-29T07:23:19;4.97;;;1.30;;
73859;SDS011;62197;51.632;13.700;2022-07-29T07:25:44;7.00;;;1.42;;
73859;SDS011;62197;51.632;13.700;2022-07-29T07:28:10;4.60;;;1.50;;
73859;SDS011;62197;51.632;13.700;2022-07-29T07:30:35;7.78;;;1.55;;
73859;SDS011;62197;51.632;13.700;2022-07-29T07:33:01;3.70;;;1.45;;
73859;SDS011;62197;51.632;13.700;2022-07-29T07:35:27;4.47;;;1.88;;
73859;SDS011;62197;51.632;13.700;2022-07-29T07:37:53;4.68;;;2.03;;
73859;SDS011;62197;51.632;13.700;2022-07-29T07:40:18;7.03;;;2.13;;
73859;SDS011;62197;51.632;13.700;2022-07-29T07:42:44;4.95;;;2.25;;
73859;SDS011;62197;51.632;13.700;2022-07-29T07:45:09;6.25;;;1.83;;
73859;SDS011;62197;51.632;13.700;2022-07-29T07:47:36;7.35;;;1.80;;
73859;SDS011;62197;51.632;13.700;2022-07-29T07:50:03;6.05;;;1.55;;
73859;SDS011;62197;51.632;13.700;2022-07-29T07:52:30;4.63;;;1.92;;
73859;SDS011;62197;51.632;13.700;2022-07-29T07:54:55;5.18;;;1.75;;
73859;SDS011;62197;51.632;13.700;2022-07-29T07:57:21;4.65;;;1.80;;
73859;SDS011;62197;51.632;13.700;2022-07-29T07:59:46;8.70;;;2.50;;
73859;SDS011;62197;51.632;13.700;2022-07-29T08:02:11;5.57;;;1.52;;
73859;SDS011;62197;51.632;13.700;2022-07-29T08:04:37;6.22;;;1.77;;
73859;SDS011;62197;51.632;13.700;2022-07-29T08:07:05;5.78;;;1.25;;
73859;SDS011;62197;51.632;13.700;2022-07-29T08:09:30;6.45;;;1.85;;
73859;SDS011;62197;51.632;13.700;2022-07-29T08:11:56;3.47;;;1.50;;
73859;SDS011;62197;51.632;13.700;2022-07-29T08:14:23;5.55;;;1.70;;
73859;SDS011;62197;51.632;13.700;2022-07-29T08:16:48;5.97;;;1.60;;
73859;SDS011;62197;51.632;13.700;2022-07-29T08:19:14;6.10;;;2.35;;
73859;SDS011;62197;51.632;13.700;2022-07-29T08:21:39;4.57;;;1.75;;
73859;SDS011;62197;51.632;13.700;2022-07-29T08:24:05;8.07;;;1.52;;
73859;SDS011;62197;51.632;13.700;2022-07-29T08:26:49;4.57;;;1.55;;
73859;SDS011;62197;51.632;13.700;2022-07-29T08:29:15;3.55;;;1.60;;
73859;SDS011;62197;51.632;13.700;2022-07-29T08:31:41;8.85;;;2.17;;
73859;SDS011;62197;51.632;13.700;2022-07-29T08:34:07;5.78;;;1.42;;
73859;SDS011;62197;51.632;13.700;2022-07-29T08:36:32;4.35;;;1.38;;
73859;SDS011;62197;51.632;13.700;2022-07-29T08:38:58;7.38;;;1.60;;
73859;SDS011;62197;51.632;13.700;2022-07-29T08:41:24;7.35;;;1.92;;
73859;SDS011;62197;51.632;13.700;2022-07-29T08:43:50;11.15;;;1.88;;
73859;SDS011;62197;51.632;13.700;2022-07-29T08:46:17;5.63;;;1.42;;
73859;SDS011;62197;51.632;13.700;2022-07-29T08:48:42;6.72;;;2.05;;
73859;SDS011;62197;51.632;13.700;2022-07-29T08:51:08;9.05;;;2.33;;
73859;SDS011;62197;51.632;13.700;2022-07-29T08:53:39;3.92;;;1.40;;
73859;SDS011;62197;51.632;13.700;2022-07-29T08:56:07;4.53;;;1.67;;
73859;SDS011;62197;51.632;13.700;2022-07-29T08:58:35;3.38;;;1.60;;
73859;SDS011;62197;51.632;13.700;2022-07-29T09:01:01;6.15;;;1.75;;
73859;SDS011;62197;51.632;13.700;2022-07-29T09:03:31;3.88;;;1.27;;
73859;SDS011;62197;51.632;13.700;2022-07-29T09:05:58;4.65;;;1.80;;
73859;SDS011;62197;51.632;13.700;2022-07-29T09:08:24;5.43;;;1.60;;
73859;SDS011;62197;51.632;13.700;2022-07-29T09:10:51;4.35;;;1.40;;
73859;SDS011;62197;51.632;13.700;2022-07-29T09:13:16;7.10;;;1.70;;
73859;SDS011;62197;51.632;13.700;2022-07-29T09:15:43;5.65;;;1.73;;
73859;SDS011;62197;51.632;13.700;2022-07-29T09:18:08;5.65;;;1.98;;
73859;SDS011;62197;51.632;13.700;2022-07-29T09:20:34;7.82;;;1.98;;
73859;SDS011;62197;51.632;13.700;2022-07-29T09:23:18;5.15;;;1.80;;
73859;SDS011;62197;51.632;13.700;2022-07-29T09:25:43;5.50;;;1.80;;
73859;SDS011;62197;51.632;13.700;2022-07-29T09:28:09;6.20;;;1.42;;
73859;SDS011;62197;51.632;13.700;2022-07-29T09:30:50;5.03;;;1.95;;
73859;SDS011;62197;51.632;13.700;2022-07-29T09:33:15;4.28;;;1.50;;
73859;SDS011;62197;51.632;13.700;2022-07-29T09:35:40;4.80;;;2.53;;
73859;SDS011;62197;51.632;13.700;2022-07-29T09:38:12;5.47;;;1.80;;
73859;SDS011;62197;51.632;13.700;2022-07-29T09:40:38;6.05;;;2.20;;
73859;SDS011;62197;51.632;13.700;2022-07-29T09:43:11;5.13;;;1.98;;
73859;SDS011;62197;51.632;13.700;2022-07-29T09:45:38;5.55;;;1.77;;
73859;SDS011;62197;51.632;13.700;2022-07-29T09:48:14;5.03;;;2.17;;
73859;SDS011;62197;51.632;13.700;2022-07-29T09:50:42;4.45;;;1.85;;
73859;SDS011;62197;51.632;13.700;2022-07-29T09:53:09;4.53;;;2.25;;
73859;SDS011;62197;51.632;13.700;2022-07-29T09:55:50;4.50;;;1.42;;
73859;SDS011;62197;51.632;13.700;2022-07-29T09:58:20;5.18;;;1.60;;
73859;SDS011;62197;51.632;13.700;2022-07-29T10:00:46;6.63;;;2.28;;
73859;SDS011;62197;51.632;13.700;2022-07-29T10:03:13;3.80;;;1.70;;
73859;SDS011;62197;51.632;13.700;2022-07-29T10:05:40;4.95;;;2.10;;
73859;SDS011;62197;51.632;13.700;2022-07-29T10:08:07;5.70;;;2.30;;
73859;SDS011;62197;51.632;13.700;2022-07-29T10:10:34;4.25;;;1.67;;
73859;SDS011;62197;51.632;13.700;2022-07-29T10:13:03;3.88;;;2.05;;
73859;SDS011;62197;51.632;13.700;2022-07-29T10:15:30;7.03;;;2.08;;
73859;SDS011;62197;51.632;13.700;2022-07-29T10:17:58;2.63;;;1.67;;
73859;SDS011;62197;51.632;13.700;2022-07-29T10:20:25;7.85;;;1.63;;
73859;SDS011;62197;51.632;13.700;2022-07-29T10:22:52;5.90;;;1.65;;
73859;SDS011;62197;51.632;13.700;2022-07-29T10:25:19;4.97;;;1.70;;
73859;SDS011;62197;51.632;13.700;2022-07-29T10:27:45;3.92;;;1.83;;
73859;SDS011;62197;51.632;13.700;2022-07-29T10:30:12;5.13;;;2.03;;
73859;SDS011;62197;51.632;13.700;2022-07-29T10:32:47;3.22;;;1.73;;
73859;SDS011;62197;51.632;13.700;2022-07-29T10:35:34;5.80;;;2.20;;
73859;SDS011;62197;51.632;13.700;2022-07-29T10:38:12;3.85;;;1.90;;
73859;SDS011;62197;51.632;13.700;2022-07-29T10:41:21;3.90;;;2.10;;
73859;SDS011;62197;51.632;13.700;2022-07-29T10:44:17;4.40;;;2.42;;
73859;SDS011;62197;51.632;13.700;2022-07-29T10:46:45;8.15;;;2.05;;
73859;SDS011;62197;51.632;13.700;2022-07-29T10:49:15;4.07;;;1.80;;
73859;SDS011;62197;51.632;13.700;2022-07-29T10:51:52;5.30;;;1.67;;
73859;SDS011;62197;51.632;13.700;2022-07-29T10:59:39;7.80;;;2.50;;
73859;SDS011;62197;51.632;13.700;2022-07-29T11:02:40;4.93;;;2.10;;
73859;SDS011;62197;51.632;13.700;2022-07-29T11:05:00;6.13;;;2.05;;
73859;SDS011;62197;51.632;13.700;2022-07-29T11:07:28;5.88;;;2.30;;
73859;SDS011;62197;51.632;13.700;2022-07-29T11:20:31;5.22;;;1.83;;
73859;SDS011;62197;51.632;13.700;2022-07-29T11:22:56;8.27;;;2.10;;
73859;SDS011;62197;51.632;13.700;2022-07-29T11:25:22;6.20;;;1.80;;
73859;SDS011;62197;51.632;13.700;2022-07-29T11:27:48;5.53;;;2.08;;
73859;SDS011;62197;51.632;13.700;2022-07-29T11:30:14;6.47;;;2.17;;
73859;SDS011;62197;51.632;13.700;2022-07-29T11:32:40;7.18;;;2.15;;
73859;SDS011;62197;51.632;13.700;2022-07-29T11:35:14;5.88;;;2.15;;
73859;SDS011;62197;51.632;13.700;2022-07-29T11:37:39;4.72;;;2.05;;
73859;SDS011;62197;51.632;13.700;2022-07-29T11:47:42;5.82;;;2.17;;
73859;SDS011;62197;51.632;13.700;2022-07-29T11:50:32;5.03;;;2.00;;
73859;SDS011;62197;51.632;13.700;2022-07-29T11:53:00;5.40;;;2.40;;
73859;SDS011;62197;51.632;13.700;2022-07-29T11:55:27;5.15;;;2.25;;
73859;SDS011;62197;51.632;13.700;2022-07-29T11:57:54;5.68;;;1.88;;
73859;SDS011;62197;51.632;13.700;2022-07-29T12:00:31;7.57;;;2.22;;
73859;SDS011;62197;51.632;13.700;2022-07-29T12:02:58;6.55;;;1.60;;
73859;SDS011;62197;51.632;13.700;2022-07-29T12:05:37;5.32;;;2.22;;
73859;SDS011;62197;51.632;13.700;2022-07-29T12:08:09;6.18;;;2.20;;
73859;SDS011;62197;51.632;13.700;2022-07-29T12:10:47;5.75;;;1.70;;
73859;SDS011;62197;51.632;13.700;2022-07-29T12:13:16;3.28;;;1.75;;
73859;SDS011;62197;51.632;13.700;2022-07-29T12:15:50;3.65;;;1.63;;
73859;SDS011;62197;51.632;13.700;2022-07-29T12:18:17;3.13;;;1.75;;
73859;SDS011;62197;51.632;13.700;2022-07-29T12:20:45;3.47;;;1.75;;
73859;SDS011;62197;51.632;13.700;2022-07-29T12:23:11;3.13;;;1.90;;
73859;SDS011;62197;51.632;13.700;2022-07-29T12:25:37;4.07;;;1.75;;
73859;SDS011;62197;51.632;13.700;2022-07-29T12:28:04;3.90;;;2.00;;
73859;SDS011;62197;51.632;13.700;2022-07-29T12:30:35;2.83;;;1.80;;
73859;SDS011;62197;51.632;13.700;2022-07-29T12:33:12;2.33;;;1.30;;
73859;SDS011;62197;51.632;13.700;2022-07-29T12:35:48;3.42;;;1.70;;
73859;SDS011;62197;51.632;13.700;2022-07-29T12:38:16;4.28;;;1.95;;
73859;SDS011;62197;51.632;13.700;2022-07-29T12:40:43;2.05;;;1.40;;
73859;SDS011;62197;51.632;13.700;2022-07-29T12:45:39;5.00;;;1.92;;
73859;SDS011;62197;51.632;13.700;2022-07-29T12:48:07;2.85;;;1.77;;
73859;SDS011;62197;51.632;13.700;2022-07-29T12:50:36;3.83;;;1.92;;
73859;SDS011;62197;51.632;13.700;2022-07-29T12:53:16;4.55;;;1.90;;
73859;SDS011;62197;51.632;13.700;2022-07-29T12:55:49;3.55;;;1.70;;
73859;SDS011;62197;51.632;13.700;2022-07-29T12:58:35;5.15;;;2.17;;
73859;SDS011;62197;51.632;13.700;2022-07-29T13:01:01;3.20;;;2.00;;
73859;SDS011;62197;51.632;13.700;2022-07-29T13:11:39;5.22;;;2.42;;
73859;SDS011;62197;51.632;13.700;2022-07-29T13:14:05;7.20;;;2.00;;
73859;SDS011;62197;51.632;13.700;2022-07-29T13:16:33;6.82;;;1.90;;
73859;SDS011;62197;51.632;13.700;2022-07-29T13:19:05;6.75;;;2.30;;
73859;SDS011;62197;51.632;13.700;2022-07-29T13:21:33;5.20;;;2.17;;
73859;SDS011;62197;51.632;13.700;2022-07-29T13:23:59;5.93;;;2.20;;
73859;SDS011;62197;51.632;13.700;2022-07-29T13:26:24;3.67;;;2.20;;
73859;SDS011;62197;51.632;13.700;2022-07-29T13:28:50;4.97;;;2.25;;
73859;SDS011;62197;51.632;13.700;2022-07-29T13:31:15;6.55;;;2.40;;
73859;SDS011;62197;51.632;13.700;2022-07-29T13:33:40;5.75;;;1.95;;
73859;SDS011;62197;51.632;13.700;2022-07-29T13:36:06;2.67;;;2.10;;
73859;SDS011;62197;51.632;13.700;2022-07-29T13:38:31;5.13;;;2.20;;
73859;SDS011;62197;51.632;13.700;2022-07-29T13:40:57;3.45;;;2.15;;
73859;SDS011;62197;51.632;13.700;2022-07-29T13:43:23;5.45;;;2.40;;
73859;SDS011;62197;51.632;13.700;2022-07-29T13:45:49;5.20;;;2.05;;
73859;SDS011;62197;51.632;13.700;2022-07-29T13:48:14;3.97;;;2.05;;
73859;SDS011;62197;51.632;13.700;2022-07-29T13:50:39;3.35;;;2.28;;
73859;SDS011;62197;51.632;13.700;2022-07-29T13:53:05;3.65;;;2.15;;
73859;SDS011;62197;51.632;13.700;2022-07-29T13:55:30;2.45;;;1.90;;
73859;SDS011;62197;51.632;13.700;2022-07-29T13:57:55;3.95;;;1.60;;
73859;SDS011;62197;51.632;13.700;2022-07-29T14:00:21;2.72;;;2.00;;
73859;SDS011;62197;51.632;13.700;2022-07-29T14:02:48;4.05;;;2.25;;
73859;SDS011;62197;51.632;13.700;2022-07-29T14:05:13;5.05;;;2.10;;
73859;SDS011;62197;51.632;13.700;2022-07-29T14:07:39;14.32;;;2.30;;
73859;SDS011;62197;51.632;13.700;2022-07-29T14:10:05;2.83;;;1.83;;
73859;SDS011;62197;51.632;13.700;2022-07-29T14:12:31;8.73;;;2.20;;
73859;SDS011;62197;51.632;13.700;2022-07-29T14:14:56;3.08;;;1.80;;
73859;SDS011;62197;51.632;13.700;2022-07-29T14:17:22;3.60;;;1.80;;
73859;SDS011;62197;51.632;13.700;2022-07-29T14:19:47;3.83;;;2.00;;
73859;SDS011;62197;51.632;13.700;2022-07-29T14:22:13;4.80;;;1.83;;
73859;SDS011;62197;51.632;13.700;2022-07-29T14:24:38;8.02;;;2.35;;
73859;SDS011;62197;51.632;13.700;2022-07-29T14:27:04;4.25;;;1.80;;
73859;SDS011;62197;51.632;13.700;2022-07-29T14:29:30;5.63;;;2.33;;
73859;SDS011;62197;51.632;13.700;2022-07-29T14:31:56;4.50;;;1.73;;
73859;SDS011;62197;51.632;13.700;2022-07-29T14:34:21;5.43;;;2.17;;
73859;SDS011;62197;51.632;13.700;2022-07-29T14:36:47;4.43;;;1.90;;
73859;SDS011;62197;51.632;13.700;2022-07-29T14:39:12;10.70;;;2.25;;
73859;SDS011;62197;51.632;13.700;2022-07-29T14:41:37;4.47;;;2.00;;
73859;SDS011;62197;51.632;13.700;2022-07-29T14:44:03;4.13;;;2.13;;
73859;SDS011;62197;51.632;13.700;2022-07-29T14:46:29;7.18;;;2.22;;
73859;SDS011;62197;51.632;13.700;2022-07-29T14:48:54;5.57;;;1.95;;
73859;SDS011;62197;51.632;13.700;2022-07-29T14:51:19;5.93;;;2.20;;
73859;SDS011;62197;51.632;13.700;2022-07-29T14:53:45;4.40;;;2.33;;
73859;SDS011;62197;51.632;13.700;2022-07-29T14:56:10;3.83;;;1.83;;
73859;SDS011;62197;51.632;13.700;2022-07-29T14:58:35;3.88;;;2.28;;
73859;SDS011;62197;51.632;13.700;2022-07-29T15:01:01;9.55;;;2.58;;
73859;SDS011;62197;51.632;13.700;2022-07-29T15:03:26;4.45;;;2.00;;
73859;SDS011;62197;51.632;13.700;2022-07-29T15:05:52;7.07;;;2.33;;
73859;SDS011;62197;51.632;13.700;2022-07-29T15:08:18;5.32;;;2.25;;
73859;SDS011;62197;51.632;13.700;2022-07-29T15:10:43;3.42;;;2.03;;
73859;SDS011;62197;51.632;13.700;2022-07-29T15:13:09;5.47;;;1.80;;
73859;SDS011;62197;51.632;13.700;2022-07-29T15:15:34;4.20;;;2.10;;
73859;SDS011;62197;51.632;13.700;2022-07-29T15:17:59;4.50;;;1.80;;
73859;SDS011;62197;51.632;13.700;2022-07-29T15:20:25;6.75;;;2.10;;